F/V Berriz Patxiku — ECES — position and weather

sailwx.info

Track history (hours):
 
Tides and Currents Weather Stations Pressure Air Temp Water Temp Dewpoint Dewpoint Depression Visibility Wind Speed Wind Dir Waves Ship Positions

F/V Berriz Patxiku

Last reported at 2015-Apr-24 13:33 UTC. Time now 2015-Apr-27 07:13 UTC.
Position N 43°18' W 002°12'.

Length 30 m.

Type: Fishing. MMSI: 224106260.

Date/timePositionNaut miles runAvg speedWind from/ knotsBaromVisibWave heightAir tempDewpointWater temp
2015-Apr-24 13:33N 43°18' W 002°12'1 0.7
2015-Apr-24 12:30N 43°19' W 002°12'1410.1
2015-Apr-24 11:06N 43°33' W 002°10'1610.4
2015-Apr-24 09:31N 43°49' W 002°08'1010.3
2015-Apr-24 08:33N 43°59' W 002°07'2010.2
2015-Apr-24 06:33N 44°20' W 002°05'4 3.5
2015-Apr-24 05:33N 44°23' W 002°04'0 0.2
2015-Apr-24 04:32N 44°23' W 002°04'3 3.3
2015-Apr-24 03:33N 44°20' W 002°03'1 0.7
2015-Apr-24 02:33N 44°19' W 002°04'5 5.3
2015-Apr-24 01:33N 44°23' W 001°58'6 5.4
2015-Apr-24 00:28N 44°20' W 002°05'5 2.6
2015-Apr-23 22:29N 44°19' W 001°58'18 0.7
2015-Apr-22 19:32N 44°12' W 001°35'0 0.1
2015-Apr-22 18:32N 44°12' W 001°35'1 1.3
2015-Apr-22 17:32N 44°12' W 001°37'1 0.9
2015-Apr-22 16:33N 44°11' W 001°38'14 1.2
2015-Apr-22 04:33N 43°59' W 001°48'1 0.9
2015-Apr-22 03:20N 43°59' W 001°46'2 0.9
2015-Apr-22 01:13N 43°59' W 001°49'3 3.2
2015-Apr-22 00:09N 43°59' W 001°54'4 0.4
2015-Apr-21 14:31N 43°55' W 001°54'1310.5
2015-Apr-21 13:19N 44°07' W 001°49'9 2.7
2015-Apr-21 10:07N 44°15' W 001°46'2 3.2
2015-Apr-21 09:33N 44°17' W 001°46'0 0.4
2015-Apr-21 08:34N 44°17' W 001°47'2 1.9
2015-Apr-21 07:33N 44°19' W 001°47'9 9.3
2015-Apr-21 06:33N 44°28' W 001°48'8 8.4
2015-Apr-21 05:33N 44°37' W 001°49'9 8.7
2015-Apr-21 04:33N 44°42' W 001°58'12 9.0
2015-Apr-21 03:12N 44°53' W 002°04'5 2.0
2015-Apr-21 00:25N 44°59' W 002°03'0 0.3
2015-Apr-20 23:33N 44°58' W 002°03'4 4.0
2015-Apr-20 22:32N 44°56' W 002°07'4 4.4
2015-Apr-20 21:33N 44°56' W 002°01'6 3.0
2015-Apr-20 19:33N 44°51' W 001°57'9 8.8
2015-Apr-20 18:33N 44°42' W 001°53'6 6.2
2015-Apr-20 17:33N 44°38' W 001°47'7 6.3
2015-Apr-20 16:30N 44°32' W 001°46'12 9.8
2015-Apr-20 15:18N 44°21' W 001°51'810.2
2015-Apr-20 14:33N 44°13' W 001°55'  
2015-Apr-17 16:11N 43°18' W 002°12'73 7.6
2015-Apr-17 06:33N 44°30' W 001°49'1010.0
2015-Apr-17 05:33N 44°39' W 001°46'0 0.5
2015-Apr-17 04:33N 44°40' W 001°46'0 0.4
2015-Apr-17 03:34N 44°40' W 001°47'3 1.1
2015-Apr-17 00:31N 44°37' W 001°46'3 3.1
2015-Apr-16 23:27N 44°34' W 001°45'1 0.7
2015-Apr-16 22:33N 44°34' W 001°45'79 8.7
2015-Apr-16 13:33N 43°18' W 002°12'3411.1
2015-Apr-16 10:28N 43°51' W 001°57'1010.5
2015-Apr-16 09:32N 44°00' W 001°53'2210.5
2015-Apr-16 07:29N 44°21' W 001°44'910.2
2015-Apr-16 06:33N 44°30' W 001°40'2 1.7
2015-Apr-16 05:34N 44°29' W 001°38'1 0.8
2015-Apr-16 04:33N 44°28' W 001°38'5 4.8
2015-Apr-16 03:33N 44°24' W 001°35'0 0.4
2015-Apr-16 02:34N 44°24' W 001°36'1 0.8
2015-Apr-16 01:34N 44°24' W 001°37'1 0.8
2015-Apr-16 00:33N 44°24' W 001°38'0 0.3
2015-Apr-15 23:34N 44°24' W 001°38'2 1.9
2015-Apr-15 22:33N 44°22' W 001°39'2 1.7
2015-Apr-15 21:33N 44°21' W 001°39'2 2.3
2015-Apr-15 20:33N 44°19' W 001°42'2 1.6
2015-Apr-15 19:34N 44°19' W 001°40'39 9.7
2015-Apr-15 15:33N 43°43' W 001°58'7 1.1
2015-Apr-15 09:13N 43°37' W 002°01'710.5
2015-Apr-15 08:33N 43°43' W 001°58'1110.6
2015-Apr-15 07:34N 43°53' W 001°52'1010.4
2015-Apr-15 06:33N 44°03' W 001°47'1110.7
2015-Apr-15 05:33N 44°12' W 001°41'2 2.3
2015-Apr-15 04:33N 44°15' W 001°40'1 1.4
2015-Apr-15 03:31N 44°14' W 001°41'2 0.6
2015-Apr-15 00:11N 44°13' W 001°44'4 1.4
2015-Apr-14 21:07N 44°09' W 001°44'0 0.6
2015-Apr-14 20:30N 44°09' W 001°43'  
Track history (hours):
 
Tides and Currents Weather Stations Pressure Air Temp Water Temp Dewpoint Dewpoint Depression Visibility Wind Speed Wind Dir Waves Ship Positions

F/V Berriz Patxiku

Last reported at 2015-Apr-24 13:33 UTC. Time now 2015-Apr-27 07:13 UTC.
Position N 43°18' W 002°12'.

Length 30 m.

Type: Fishing. MMSI: 224106260.

Date/timePositionNaut miles runAvg speedWind from/ knotsBaromVisibWave heightAir tempDewpointWater temp
2015-Apr-24 13:33N 43°18' W 002°12'1 0.7
2015-Apr-24 12:30N 43°19' W 002°12'1410.1
2015-Apr-24 11:06N 43°33' W 002°10'1610.4
2015-Apr-24 09:31N 43°49' W 002°08'1010.3
2015-Apr-24 08:33N 43°59' W 002°07'2010.2
2015-Apr-24 06:33N 44°20' W 002°05'4 3.5
2015-Apr-24 05:33N 44°23' W 002°04'0 0.2
2015-Apr-24 04:32N 44°23' W 002°04'3 3.3
2015-Apr-24 03:33N 44°20' W 002°03'1 0.7
2015-Apr-24 02:33N 44°19' W 002°04'5 5.3
2015-Apr-24 01:33N 44°23' W 001°58'6 5.4
2015-Apr-24 00:28N 44°20' W 002°05'5 2.6
2015-Apr-23 22:29N 44°19' W 001°58'18 0.7
2015-Apr-22 19:32N 44°12' W 001°35'0 0.1
2015-Apr-22 18:32N 44°12' W 001°35'1 1.3
2015-Apr-22 17:32N 44°12' W 001°37'1 0.9
2015-Apr-22 16:33N 44°11' W 001°38'14 1.2
2015-Apr-22 04:33N 43°59' W 001°48'1 0.9
2015-Apr-22 03:20N 43°59' W 001°46'2 0.9
2015-Apr-22 01:13N 43°59' W 001°49'3 3.2
2015-Apr-22 00:09N 43°59' W 001°54'4 0.4
2015-Apr-21 14:31N 43°55' W 001°54'1310.5
2015-Apr-21 13:19N 44°07' W 001°49'9 2.7
2015-Apr-21 10:07N 44°15' W 001°46'2 3.2
2015-Apr-21 09:33N 44°17' W 001°46'0 0.4
2015-Apr-21 08:34N 44°17' W 001°47'2 1.9
2015-Apr-21 07:33N 44°19' W 001°47'9 9.3
2015-Apr-21 06:33N 44°28' W 001°48'8 8.4
2015-Apr-21 05:33N 44°37' W 001°49'9 8.7
2015-Apr-21 04:33N 44°42' W 001°58'12 9.0
2015-Apr-21 03:12N 44°53' W 002°04'5 2.0
2015-Apr-21 00:25N 44°59' W 002°03'0 0.3
2015-Apr-20 23:33N 44°58' W 002°03'4 4.0
2015-Apr-20 22:32N 44°56' W 002°07'4 4.4
2015-Apr-20 21:33N 44°56' W 002°01'6 3.0
2015-Apr-20 19:33N 44°51' W 001°57'9 8.8
2015-Apr-20 18:33N 44°42' W 001°53'6 6.2
2015-Apr-20 17:33N 44°38' W 001°47'7 6.3
2015-Apr-20 16:30N 44°32' W 001°46'12 9.8
2015-Apr-20 15:18N 44°21' W 001°51'810.2
2015-Apr-20 14:33N 44°13' W 001°55'  
2015-Apr-17 16:11N 43°18' W 002°12'73 7.6
2015-Apr-17 06:33N 44°30' W 001°49'1010.0
2015-Apr-17 05:33N 44°39' W 001°46'0 0.5
2015-Apr-17 04:33N 44°40' W 001°46'0 0.4
2015-Apr-17 03:34N 44°40' W 001°47'3 1.1
2015-Apr-17 00:31N 44°37' W 001°46'3 3.1
2015-Apr-16 23:27N 44°34' W 001°45'1 0.7
2015-Apr-16 22:33N 44°34' W 001°45'79 8.7
2015-Apr-16 13:33N 43°18' W 002°12'3411.1
2015-Apr-16 10:28N 43°51' W 001°57'1010.5
2015-Apr-16 09:32N 44°00' W 001°53'2210.5
2015-Apr-16 07:29N 44°21' W 001°44'910.2
2015-Apr-16 06:33N 44°30' W 001°40'2 1.7
2015-Apr-16 05:34N 44°29' W 001°38'1 0.8
2015-Apr-16 04:33N 44°28' W 001°38'5 4.8
2015-Apr-16 03:33N 44°24' W 001°35'0 0.4
2015-Apr-16 02:34N 44°24' W 001°36'1 0.8
2015-Apr-16 01:34N 44°24' W 001°37'1 0.8
2015-Apr-16 00:33N 44°24' W 001°38'0 0.3
2015-Apr-15 23:34N 44°24' W 001°38'2 1.9
2015-Apr-15 22:33N 44°22' W 001°39'2 1.7
2015-Apr-15 21:33N 44°21' W 001°39'2 2.3
2015-Apr-15 20:33N 44°19' W 001°42'2 1.6
2015-Apr-15 19:34N 44°19' W 001°40'39 9.7
2015-Apr-15 15:33N 43°43' W 001°58'7 1.1
2015-Apr-15 09:13N 43°37' W 002°01'710.5
2015-Apr-15 08:33N 43°43' W 001°58'1110.6
2015-Apr-15 07:34N 43°53' W 001°52'1010.4
2015-Apr-15 06:33N 44°03' W 001°47'1110.7
2015-Apr-15 05:33N 44°12' W 001°41'2 2.3
2015-Apr-15 04:33N 44°15' W 001°40'1 1.4
2015-Apr-15 03:31N 44°14' W 001°41'2 0.6
2015-Apr-15 00:11N 44°13' W 001°44'4 1.4
2015-Apr-14 21:07N 44°09' W 001°44'0 0.6
2015-Apr-14 20:30N 44°09' W 001°43'  

Dump ship's entire track history